createdAt,value
2023-01-04T00:00:37.718Z,9
2023-01-04T00:02:35.376Z,9
2023-01-04T00:04:32.857Z,8.9
2023-01-04T00:06:30.453Z,8.9
2023-01-04T00:08:35.964Z,8.8
2023-01-04T00:10:33.577Z,8.9
2023-01-04T00:12:31.138Z,8.8
2023-01-04T00:16:26.415Z,8.8
2023-01-04T00:20:21.501Z,8.8
2023-01-04T00:24:24.605Z,8.8
2023-01-04T00:26:22.205Z,8.8
2023-01-04T00:27:24.931Z,8.8
2023-01-04T00:29:22.587Z,8.8
2023-01-04T00:31:20.196Z,8.8
2023-01-04T00:33:17.773Z,8.8
2023-01-04T00:35:44.708Z,8.8
2023-01-04T00:37:20.811Z,8.8
2023-01-04T00:39:18.380Z,8.8
2023-01-04T00:41:34.707Z,8.8
2023-01-04T00:43:13.555Z,8.8
2023-01-04T00:49:14.215Z,8.8
2023-01-04T00:51:11.773Z,8.7
2023-01-04T00:53:09.360Z,8.8
2023-01-04T00:55:08.492Z,8.9
2023-01-04T00:59:03.665Z,8.8
2023-01-04T01:01:01.253Z,8.9
2023-01-04T01:03:06.862Z,8.7
2023-01-04T01:05:04.301Z,8.8
2023-01-04T01:07:01.893Z,8.8
2023-01-04T01:12:54.623Z,8.9
2023-01-04T01:14:55.972Z,8.9
2023-01-04T01:16:58.751Z,8.8
2023-01-04T01:20:52.901Z,8.9
2023-01-04T01:21:55.623Z,8.9
2023-01-04T01:23:53.202Z,8.8
2023-01-04T01:25:50.782Z,8.9
2023-01-04T01:29:53.836Z,8.9
2023-01-04T01:31:51.497Z,8.9
2023-01-04T01:33:49.033Z,8.9
2023-01-04T01:35:46.600Z,9
2023-01-04T01:37:44.195Z,9
2023-01-04T01:39:41.785Z,8.9
2023-01-04T01:41:39.374Z,9
2023-01-04T01:43:44.847Z,9
2023-01-04T01:45:42.416Z,9
2023-01-04T01:47:39.996Z,9.1
2023-01-04T01:49:37.614Z,9.1
2023-01-04T01:51:35.212Z,9.1
2023-01-04T01:53:32.800Z,9.1
2023-01-04T01:55:30.375Z,9.2
2023-01-04T01:57:35.831Z,9.2
2023-01-04T01:59:33.435Z,9.1
2023-01-04T02:01:31.270Z,9.2
2023-01-04T02:05:26.195Z,9.1
2023-01-04T02:07:23.776Z,9.2
2023-01-04T02:09:21.388Z,9.2
2023-01-04T02:11:26.877Z,9.2
2023-01-04T02:13:24.485Z,9.2
2023-01-04T02:15:22.065Z,9.2
2023-01-04T02:16:24.855Z,9.3
2023-01-04T02:18:22.374Z,9.3
2023-01-04T02:22:17.566Z,9.4
2023-01-04T02:24:23.073Z,9.3
2023-01-04T02:26:20.638Z,9.3
2023-01-04T02:28:18.243Z,9.3
2023-01-04T02:32:13.451Z,9.5
2023-01-04T02:34:11.016Z,9.3
2023-01-04T02:38:14.123Z,9.5
2023-01-04T02:40:11.738Z,9.4
2023-01-04T02:44:06.879Z,9.5
2023-01-04T02:46:04.540Z,9.6
2023-01-04T02:48:02.088Z,9.6
2023-01-04T02:52:05.155Z,9.6
2023-01-04T02:54:02.733Z,9.5
2023-01-04T02:57:57.933Z,9.7
2023-01-04T03:01:53.274Z,9.7
2023-01-04T03:03:50.732Z,9.7
2023-01-04T03:05:56.217Z,9.7
2023-01-04T03:07:53.803Z,9.7
2023-01-04T03:09:51.375Z,9.8
2023-01-04T03:12:14.653Z,9.8
2023-01-04T03:14:32.392Z,9.8
2023-01-04T03:18:15.424Z,9.9
2023-01-04T03:20:13.004Z,9.9
2023-01-04T03:24:08.185Z,9.9
2023-01-04T03:26:05.793Z,9.9
2023-01-04T03:28:03.407Z,9.9
2023-01-04T03:30:00.990Z,10
2023-01-04T03:32:06.465Z,9.9
2023-01-04T03:34:04.087Z,9.9
2023-01-04T03:36:01.673Z,10
2023-01-04T03:41:54.492Z,10
2023-01-04T03:43:52.044Z,10.1
2023-01-04T03:45:57.577Z,10
2023-01-04T03:47:55.160Z,10
2023-01-04T03:49:52.726Z,10
2023-01-04T03:53:47.926Z,10.1
2023-01-04T03:57:43.110Z,10.1
2023-01-04T04:03:43.879Z,10.2
2023-01-04T04:04:46.520Z,10.3
2023-01-04T04:06:44.139Z,10.2
2023-01-04T04:08:41.742Z,10.3
2023-01-04T04:10:39.311Z,10.2
2023-01-04T04:12:44.831Z,10.2
2023-01-04T04:14:42.419Z,10.2
2023-01-04T04:22:32.823Z,10.3
2023-01-04T04:24:30.409Z,10.4
2023-01-04T04:28:33.535Z,10.4
2023-01-04T04:30:31.129Z,10.5
2023-01-04T04:32:28.741Z,10.4
2023-01-04T04:34:26.306Z,10.5
2023-01-04T04:36:23.938Z,10.5
2023-01-04T04:38:21.569Z,10.6
2023-01-04T04:40:27.017Z,10.6
2023-01-04T04:42:24.619Z,10.6
2023-01-04T04:44:22.241Z,10.6
2023-01-04T04:46:19.935Z,10.7
2023-01-04T04:48:17.451Z,10.7
2023-01-04T04:50:15.032Z,10.6
2023-01-04T04:52:12.641Z,10.7
2023-01-04T04:54:18.177Z,10.8
2023-01-04T04:56:15.761Z,10.8
2023-01-04T04:58:13.385Z,10.8
2023-01-04T04:59:16.148Z,10.7
2023-01-04T05:11:09.686Z,10.9
2023-01-04T05:13:07.249Z,11
2023-01-04T05:15:04.871Z,11
2023-01-04T05:17:02.521Z,11
2023-01-04T05:19:00.051Z,11
2023-01-04T05:21:05.562Z,10.9
2023-01-04T05:23:03.152Z,11
2023-01-04T05:25:00.763Z,10.9
2023-01-04T05:26:58.379Z,10.9
2023-01-04T05:28:55.944Z,11
2023-01-04T05:34:56.660Z,10.9
2023-01-04T05:38:51.838Z,11
2023-01-04T05:42:47.026Z,10.9
2023-01-04T05:46:42.260Z,10.9
2023-01-04T05:48:47.751Z,10.9
2023-01-04T05:50:45.379Z,10.8
2023-01-04T05:52:43.000Z,10.9
2023-01-04T05:53:45.791Z,11
2023-01-04T05:55:43.399Z,10.9
2023-01-04T05:57:41.007Z,10.9
2023-01-04T05:59:41.814Z,10.9
2023-01-04T06:01:44.270Z,10.9
2023-01-04T06:03:41.868Z,10.9
2023-01-04T06:05:39.320Z,11
2023-01-04T06:07:36.935Z,11
2023-01-04T06:11:32.117Z,11
2023-01-04T06:13:29.728Z,11
2023-01-04T06:15:41.046Z,11
2023-01-04T06:21:28.008Z,11
2023-01-04T06:23:25.624Z,10.9
2023-01-04T06:25:23.245Z,10.9
2023-01-04T06:27:20.842Z,10.9
2023-01-04T06:29:26.348Z,10.9
2023-01-04T06:31:24.067Z,11
2023-01-04T06:33:21.530Z,10.9
2023-01-04T06:35:19.161Z,10.9
2023-01-04T06:37:18.310Z,10.9
2023-01-04T06:39:15.832Z,10.8
2023-01-04T06:43:18.985Z,10.9
2023-01-04T06:45:16.652Z,10.9
2023-01-04T06:49:37.291Z,11
2023-01-04T06:51:34.917Z,10.9
2023-01-04T06:53:32.509Z,11
2023-01-04T06:55:38.001Z,10.9
2023-01-04T06:57:35.620Z,11
2023-01-04T07:01:30.992Z,11
2023-01-04T07:03:28.454Z,11.2
2023-01-04T07:05:26.042Z,11.2
2023-01-04T07:09:29.141Z,11.2
2023-01-04T07:11:26.768Z,11.2
2023-01-04T07:13:24.379Z,11.1
2023-01-04T07:15:39.637Z,11.2
2023-01-04T07:17:22.552Z,11.2
2023-01-04T07:19:17.185Z,11.2
2023-01-04T07:21:14.790Z,11.3
2023-01-04T07:23:20.285Z,11.1
2023-01-04T07:25:17.869Z,11.3
2023-01-04T07:27:15.464Z,11.3
2023-01-04T07:29:13.089Z,11.2
2023-01-04T07:35:05.908Z,11.2
2023-01-04T07:37:11.401Z,11.3
2023-01-04T07:39:09.008Z,11.4
2023-01-04T07:41:06.623Z,11.3
2023-01-04T07:42:09.357Z,11.4
2023-01-04T07:44:06.984Z,11.3
2023-01-04T07:46:04.695Z,11.3
2023-01-04T07:48:02.191Z,11.3
2023-01-04T07:50:07.771Z,11.3
2023-01-04T07:52:05.360Z,11.3
2023-01-04T07:54:02.951Z,11.4
2023-01-04T07:56:00.539Z,11.3
2023-01-04T07:57:58.124Z,11.5
2023-01-04T07:59:55.755Z,11.3
2023-01-04T08:01:53.481Z,11.4
2023-01-04T08:03:58.965Z,11.4
2023-01-04T08:05:56.499Z,11.3
2023-01-04T08:07:54.068Z,11.4
2023-01-04T08:09:51.701Z,11.4
2023-01-04T08:11:49.303Z,11.4
2023-01-04T08:13:46.963Z,11.4
2023-01-04T08:15:44.587Z,11.3
2023-01-04T08:17:50.018Z,11.4
2023-01-04T08:19:47.623Z,11.3
2023-01-04T08:21:45.202Z,11.4
2023-01-04T08:23:42.793Z,11.4
2023-01-04T08:25:40.401Z,11.3
2023-01-04T08:27:38.007Z,11.3
2023-01-04T08:29:35.817Z,11.3
2023-01-04T08:31:41.208Z,11.3
2023-01-04T08:33:38.715Z,11.4
2023-01-04T08:35:36.340Z,11.4
2023-01-04T08:36:39.086Z,11.4
2023-01-04T08:40:58.698Z,11.3
2023-01-04T08:42:32.215Z,11.3
2023-01-04T08:44:37.439Z,11.4
2023-01-04T08:48:32.658Z,11.5
2023-01-04T08:50:30.317Z,11.4
2023-01-04T08:52:27.876Z,11.4
2023-01-04T08:54:25.540Z,11.4
2023-01-04T08:56:23.096Z,11.5
2023-01-04T08:58:28.643Z,11.4
2023-01-04T09:00:26.215Z,11.4
2023-01-04T09:02:23.996Z,11.4
2023-01-04T09:08:16.606Z,11.5
2023-01-04T09:10:14.242Z,11.5
2023-01-04T09:12:19.802Z,11.5
2023-01-04T09:14:17.363Z,11.6
2023-01-04T09:16:15.091Z,11.5
2023-01-04T09:20:10.156Z,11.7
2023-01-04T09:22:07.813Z,11.7
2023-01-04T09:24:05.383Z,11.7
2023-01-04T09:26:10.880Z,11.6
2023-01-04T09:28:08.489Z,11.8
2023-01-04T09:30:06.088Z,11.7
2023-01-04T09:31:08.932Z,11.8
2023-01-04T09:33:06.435Z,11.6
2023-01-04T09:35:04.071Z,11.8
2023-01-04T09:37:01.651Z,11.7
2023-01-04T09:39:07.187Z,11.7
2023-01-04T09:41:04.771Z,11.8
2023-01-04T09:43:20.157Z,11.8
2023-01-04T09:45:24.262Z,11.9
2023-01-04T09:46:57.668Z,11.8
2023-01-04T09:48:55.206Z,11.8
2023-01-04T09:50:52.818Z,11.8
2023-01-04T09:52:58.339Z,11.9
2023-01-04T09:54:58.984Z,11.8
2023-01-04T10:00:48.888Z,11.9
2023-01-04T10:02:46.510Z,11.8
2023-01-04T10:06:49.424Z,11.9
2023-01-04T10:08:47.003Z,11.9
2023-01-04T10:10:44.607Z,11.9
2023-01-04T10:12:42.208Z,11.9
2023-01-04T10:14:39.813Z,12
2023-01-04T10:17:10.857Z,11.9
2023-01-04T10:19:59.824Z,11.9
2023-01-04T10:21:21.800Z,11.9
2023-01-04T10:22:38.147Z,11.9
2023-01-04T10:24:35.767Z,11.9
2023-01-04T10:27:02.656Z,12
2023-01-04T10:29:00.243Z,12
2023-01-04T10:30:57.861Z,11.9
2023-01-04T10:33:03.398Z,11.9
2023-01-04T10:36:58.588Z,12.1
2023-01-04T10:38:56.175Z,12
2023-01-04T10:40:53.769Z,12
2023-01-04T10:42:51.537Z,12
2023-01-04T10:44:49.014Z,12.1
2023-01-04T10:46:54.572Z,12.1
2023-01-04T10:48:52.118Z,12
2023-01-04T10:50:49.773Z,12.2
2023-01-04T10:52:47.344Z,12.2
2023-01-04T10:54:44.964Z,12
2023-01-04T10:58:40.145Z,12.1
2023-01-04T11:00:45.817Z,12.1
2023-01-04T11:02:43.394Z,12.2
2023-01-04T11:04:40.861Z,12.1
2023-01-04T11:06:38.447Z,12.2
2023-01-04T11:10:33.642Z,12.1
2023-01-04T11:12:31.259Z,12.2
2023-01-04T11:14:37.603Z,12.1
2023-01-04T11:16:34.500Z,12.2
2023-01-04T11:18:31.972Z,12.2
2023-01-04T11:19:34.769Z,12.1
2023-01-04T11:23:29.979Z,12.2
2023-01-04T11:25:36.188Z,12.3
2023-01-04T11:27:33.123Z,12.2
2023-01-04T11:31:28.372Z,12.2
2023-01-04T11:33:25.904Z,12.2
2023-01-04T11:35:23.527Z,12.2
2023-01-04T11:37:21.106Z,12.2
2023-01-04T11:39:18.734Z,12.2
2023-01-04T11:41:24.242Z,12.3
2023-01-04T11:43:21.877Z,12.2
2023-01-04T11:45:19.464Z,12.3
2023-01-04T11:47:17.039Z,12.3
2023-01-04T11:49:14.649Z,12.3
2023-01-04T11:51:16.964Z,12.3
2023-01-04T11:53:09.892Z,12.2
2023-01-04T11:55:15.371Z,12.2
2023-01-04T11:59:10.580Z,12.4
2023-01-04T12:01:08.235Z,12.2
2023-01-04T12:03:05.846Z,12.2
2023-01-04T12:09:06.460Z,12.3
2023-01-04T12:11:04.056Z,12.4
2023-01-04T12:13:01.681Z,12.3
2023-01-04T12:14:04.415Z,12.4
2023-01-04T12:16:02.013Z,12.4
2023-01-04T12:18:01.171Z,12.5
2023-01-04T12:19:58.749Z,12.5
2023-01-04T12:24:01.870Z,12.5
2023-01-04T12:25:59.479Z,12.5
2023-01-04T12:27:57.105Z,12.6
2023-01-04T12:29:54.711Z,12.6
2023-01-04T12:31:52.302Z,12.6
2023-01-04T12:33:50.054Z,12.6
2023-01-04T12:35:55.412Z,12.7
2023-01-04T12:37:53.047Z,12.7
2023-01-04T12:39:50.653Z,12.6
2023-01-04T12:41:48.284Z,12.6
2023-01-04T12:43:47.179Z,12.7
2023-01-04T12:45:43.576Z,12.7
2023-01-04T12:49:46.566Z,12.6
2023-01-04T12:53:41.776Z,12.7
2023-01-04T12:55:43.635Z,12.7
2023-01-04T12:57:38.252Z,12.7
2023-01-04T12:59:34.616Z,12.7
2023-01-04T13:01:32.373Z,12.7
2023-01-04T13:03:37.810Z,12.8
2023-01-04T13:05:57.286Z,12.8
2023-01-04T13:07:32.945Z,12.7
2023-01-04T13:08:35.707Z,12.8
2023-01-04T13:14:28.523Z,12.8
2023-01-04T13:16:34.144Z,12.8
2023-01-04T13:18:31.652Z,12.8
2023-01-04T13:20:29.259Z,12.8
2023-01-04T13:22:29.598Z,12.9
2023-01-04T13:26:22.099Z,12.8
2023-01-04T13:30:25.213Z,13
2023-01-04T13:32:22.819Z,12.9
2023-01-04T13:34:20.420Z,12.9
2023-01-04T13:36:18.027Z,13
2023-01-04T13:38:15.650Z,13
2023-01-04T13:40:13.254Z,13
2023-01-04T13:42:10.832Z,13
2023-01-04T13:44:16.403Z,13
2023-01-04T13:52:43.052Z,13.1
2023-01-04T13:54:04.369Z,13
2023-01-04T13:56:02.111Z,13
2023-01-04T13:58:07.517Z,13.1
2023-01-04T14:00:05.093Z,13.1
2023-01-04T14:02:02.856Z,13
2023-01-04T14:04:23.421Z,12.9
2023-01-04T14:06:21.012Z,13.1
2023-01-04T14:08:18.623Z,13.1
2023-01-04T14:10:24.152Z,13.1
2023-01-04T14:12:21.765Z,13.1
2023-01-04T14:14:19.397Z,13
2023-01-04T14:16:17.009Z,12.9
2023-01-04T14:18:14.616Z,12.9
2023-01-04T14:24:18.730Z,12.9
2023-01-04T14:26:12.959Z,12.9
2023-01-04T14:28:10.670Z,12.9
2023-01-04T14:30:08.223Z,13
2023-01-04T14:32:05.846Z,12.9
2023-01-04T14:34:03.448Z,12.9
2023-01-04T14:36:01.055Z,12.9
2023-01-04T14:38:06.556Z,13
2023-01-04T14:40:04.161Z,12.9
2023-01-04T14:42:01.799Z,12.9
2023-01-04T14:43:59.393Z,12.9
2023-01-04T14:45:57.001Z,12.9
2023-01-04T14:47:54.599Z,12.8
2023-01-04T14:49:52.199Z,12.9
2023-01-04T14:53:55.337Z,12.9
2023-01-04T14:55:52.941Z,12.9
2023-01-04T14:56:55.698Z,12.8
2023-01-04T14:58:53.293Z,12.9
2023-01-04T15:00:50.931Z,12.8
2023-01-04T15:02:48.732Z,12.9
2023-01-04T15:04:54.017Z,12.7
2023-01-04T15:06:51.624Z,12.8
2023-01-04T15:08:49.230Z,12.8
2023-01-04T15:10:46.811Z,12.7
2023-01-04T15:12:44.438Z,12.7
2023-01-04T15:14:42.027Z,12.6
2023-01-04T15:16:39.727Z,12.7
2023-01-04T15:18:45.133Z,12.7
2023-01-04T15:20:42.753Z,12.6
2023-01-04T15:22:40.383Z,12.7
2023-01-04T15:28:33.216Z,12.7
2023-01-04T15:36:31.563Z,12.7
2023-01-04T15:38:29.181Z,12.6
2023-01-04T15:40:26.787Z,12.7
2023-01-04T15:42:24.393Z,12.6
2023-01-04T15:44:21.961Z,12.7
2023-01-04T15:46:27.498Z,12.7
2023-01-04T15:48:25.082Z,12.7
2023-01-04T15:51:25.500Z,12.7
2023-01-04T15:53:23.110Z,12.7
2023-01-04T15:55:20.703Z,12.6
2023-01-04T15:57:18.293Z,12.6
2023-01-04T15:59:23.824Z,12.6
2023-01-04T16:01:21.699Z,12.6
2023-01-04T16:03:19.018Z,12.5
2023-01-04T16:05:16.602Z,12.5
2023-01-04T16:07:14.234Z,12.5
2023-01-04T16:09:11.860Z,12.5
2023-01-04T16:11:09.467Z,12.6
2023-01-04T16:13:14.953Z,12.6
2023-01-04T16:15:12.565Z,12.5
2023-01-04T16:17:10.167Z,12.6
2023-01-04T16:23:02.976Z,12.4
2023-01-04T16:25:10.347Z,12.5
2023-01-04T16:27:06.104Z,12.5
2023-01-04T16:29:03.723Z,12.5
2023-01-04T16:31:01.428Z,12.5
2023-01-04T16:32:58.908Z,12.5
2023-01-04T16:34:56.545Z,12.4
2023-01-04T16:38:51.731Z,12.5
2023-01-04T16:42:54.872Z,12.4
2023-01-04T16:45:55.804Z,12.4
2023-01-04T16:49:51.069Z,12.5
2023-01-04T16:51:48.658Z,12.3
2023-01-04T16:53:54.170Z,12.4
2023-01-04T16:55:51.770Z,12.3
2023-01-04T16:57:49.369Z,12.3
2023-01-04T16:59:46.995Z,12.4
2023-01-04T17:01:51.164Z,12.4
2023-01-04T17:03:42.329Z,12.3
2023-01-04T17:05:39.813Z,12.4
2023-01-04T17:12:45.148Z,12.3
2023-01-04T17:13:38.187Z,12.4
2023-01-04T17:15:44.261Z,12.3
2023-01-04T17:17:33.391Z,12.4
2023-01-04T17:19:30.979Z,12.4
2023-01-04T17:21:36.495Z,12.3
2023-01-04T17:23:34.102Z,12.4
2023-01-04T17:25:31.739Z,12.4
2023-01-04T17:27:29.335Z,12.4
2023-01-04T17:29:26.940Z,12.5
2023-01-04T17:31:24.632Z,12.4
2023-01-04T17:33:22.179Z,12.3
2023-01-04T17:35:27.677Z,12.3
2023-01-04T17:37:25.257Z,12.4
2023-01-04T17:39:22.875Z,12.4
2023-01-04T17:41:49.801Z,12.3
2023-01-04T17:43:47.393Z,12.4
2023-01-04T17:45:45.096Z,12.5
2023-01-04T17:47:50.499Z,12.3
2023-01-04T17:49:48.104Z,12.3
2023-01-04T17:51:45.702Z,12.3
2023-01-04T17:53:43.281Z,12.4
2023-01-04T17:55:40.902Z,12.2
2023-01-04T17:57:38.501Z,12.3
2023-01-04T18:01:43.186Z,12.4
2023-01-04T18:03:42.944Z,12.3
2023-01-04T18:05:51.320Z,12.3
2023-01-04T18:07:35.955Z,12.3
2023-01-04T18:09:33.549Z,12.3
2023-01-04T18:11:31.181Z,12.4
2023-01-04T18:13:28.766Z,12.4
2023-01-04T18:15:43.862Z,12.4
2023-01-04T18:17:31.973Z,12.4
2023-01-04T18:21:28.480Z,12.3
2023-01-04T18:23:26.052Z,12.4
2023-01-04T18:25:22.385Z,12.5
2023-01-04T18:27:21.942Z,12.4
2023-01-04T18:33:20.723Z,12.3
2023-01-04T18:34:23.488Z,12.4
2023-01-04T18:36:22.042Z,12.4
2023-01-04T18:38:18.661Z,12.3
2023-01-04T18:40:16.283Z,12.3
2023-01-04T18:42:21.790Z,12.3
2023-01-04T18:44:32.873Z,12.3
2023-01-04T18:46:17.049Z,12.4
2023-01-04T18:48:14.601Z,12.2
2023-01-04T18:50:12.180Z,12.4
2023-01-04T18:52:09.779Z,12.4
2023-01-04T18:54:07.401Z,12.4
2023-01-04T18:56:12.910Z,12.2
2023-01-04T18:58:10.510Z,12.3
2023-01-04T19:00:07.997Z,12.3
2023-01-04T19:02:05.792Z,12.2
2023-01-04T19:07:58.370Z,12.2
2023-01-04T19:10:03.894Z,12.2
2023-01-04T19:13:59.125Z,12.2
2023-01-04T19:15:56.714Z,12.2
2023-01-04T19:17:54.326Z,12.2
2023-01-04T19:19:51.951Z,12.2
2023-01-04T19:21:49.559Z,12
2023-01-04T19:23:55.039Z,12
2023-01-04T19:25:52.646Z,12.1
2023-01-04T19:27:50.290Z,12
2023-01-04T19:28:53.041Z,12
2023-01-04T19:30:50.700Z,11.9
2023-01-04T19:32:48.251Z,12
2023-01-04T19:34:45.895Z,11.9
2023-01-04T19:36:51.415Z,11.9
2023-01-04T19:38:49.021Z,12
2023-01-04T19:40:46.603Z,11.9
2023-01-04T19:42:44.225Z,11.8
2023-01-04T19:44:41.822Z,11.9
2023-01-04T19:48:37.066Z,11.7
2023-01-04T19:50:42.585Z,11.8
2023-01-04T19:52:40.164Z,11.9
2023-01-04T19:54:37.762Z,11.8
2023-01-04T19:56:35.357Z,11.8
2023-01-04T19:58:32.971Z,11.7
2023-01-04T20:00:30.590Z,11.7
2023-01-04T20:02:28.446Z,11.7
2023-01-04T20:06:31.285Z,11.7
2023-01-04T20:08:28.902Z,11.7
2023-01-04T20:10:26.482Z,11.8
2023-01-04T20:14:21.716Z,11.8
2023-01-04T20:16:19.351Z,11.9
2023-01-04T20:18:24.838Z,11.8
2023-01-04T20:22:20.038Z,11.8
2023-01-04T20:23:22.772Z,11.8
2023-01-04T20:25:20.395Z,11.8
2023-01-04T20:27:18.001Z,11.8
2023-01-04T20:29:15.572Z,11.7
2023-01-04T20:31:21.156Z,11.7
2023-01-04T20:33:18.681Z,11.7
2023-01-04T20:35:16.305Z,11.7
2023-01-04T20:37:13.883Z,11.7
2023-01-04T20:39:11.508Z,11.6
2023-01-04T20:41:09.088Z,11.6
2023-01-04T20:43:06.688Z,11.6
2023-01-04T20:45:12.219Z,11.6
2023-01-04T20:47:09.815Z,11.7
2023-01-04T20:49:07.410Z,11.6
2023-01-04T20:51:05.024Z,11.6
2023-01-04T20:53:02.650Z,11.6
2023-01-04T20:55:00.221Z,11.6
2023-01-04T20:56:57.838Z,11.6
2023-01-04T20:59:03.363Z,11.6
2023-01-04T21:01:01.117Z,11.6
2023-01-04T21:02:58.779Z,11.6
2023-01-04T21:04:56.145Z,11.5
2023-01-04T21:06:53.768Z,11.6
2023-01-04T21:08:51.373Z,11.5
2023-01-04T21:12:54.455Z,11.4
2023-01-04T21:16:49.649Z,11.5
2023-01-04T21:21:10.395Z,11.5
2023-01-04T21:23:07.998Z,11.6
2023-01-04T21:25:13.498Z,11.5
2023-01-04T21:27:11.132Z,11.5
2023-01-04T21:29:08.753Z,11.7
2023-01-04T21:31:06.374Z,11.6
2023-01-04T21:33:03.909Z,11.7
2023-01-04T21:35:01.538Z,11.6
2023-01-04T21:36:59.123Z,11.6
2023-01-04T21:39:04.639Z,11.5
2023-01-04T21:41:02.252Z,11.5
2023-01-04T21:42:59.886Z,11.6
2023-01-04T21:44:57.468Z,11.5
2023-01-04T21:46:55.109Z,11.6
2023-01-04T21:48:52.659Z,11.7
2023-01-04T21:50:50.277Z,11.6
2023-01-04T21:52:55.760Z,11.7
2023-01-04T21:54:53.368Z,11.7
2023-01-04T21:56:50.966Z,11.7
2023-01-04T21:58:48.577Z,11.6
2023-01-04T22:00:46.172Z,11.6
2023-01-04T22:04:41.457Z,11.7
2023-01-04T22:06:46.860Z,11.6
2023-01-04T22:08:44.444Z,11.7
2023-01-04T22:10:42.046Z,11.7
2023-01-04T22:11:44.782Z,11.7
2023-01-04T22:13:42.422Z,11.7
2023-01-04T22:15:40.124Z,11.7
2023-01-04T22:17:37.633Z,11.7
2023-01-04T22:19:43.139Z,11.7
2023-01-04T22:21:40.743Z,11.8
2023-01-04T22:23:38.317Z,11.8
2023-01-04T22:25:35.940Z,11.7
2023-01-04T22:27:33.544Z,11.8
2023-01-04T22:31:28.820Z,11.8
2023-01-04T22:33:34.237Z,11.9
2023-01-04T22:41:24.670Z,11.8
2023-01-04T22:43:22.280Z,11.8
2023-01-04T22:47:25.420Z,11.7
2023-01-04T22:49:23.052Z,11.7
2023-01-04T22:51:20.647Z,11.8
2023-01-04T22:53:18.242Z,11.8
2023-01-04T22:55:15.811Z,11.7
2023-01-04T22:57:13.438Z,11.7
2023-01-04T22:59:11.119Z,11.7
2023-01-04T23:01:16.701Z,11.7
2023-01-04T23:03:14.330Z,11.7
2023-01-04T23:05:11.836Z,11.8
2023-01-04T23:06:14.596Z,11.8
2023-01-04T23:12:07.455Z,11.7
2023-01-04T23:14:12.995Z,11.7
2023-01-04T23:16:10.685Z,11.7
2023-01-04T23:18:08.171Z,11.7
2023-01-04T23:20:10.257Z,11.7
2023-01-04T23:24:01.025Z,11.7
2023-01-04T23:33:56.960Z,11.7
2023-01-04T23:35:54.554Z,11.6
2023-01-04T23:37:52.159Z,11.6
2023-01-04T23:39:49.792Z,11.6
2023-01-04T23:41:56.799Z,11.5
2023-01-04T23:43:54.418Z,11.5
2023-01-04T23:45:52.006Z,11.5
2023-01-04T23:47:49.588Z,11.6
2023-01-04T23:49:47.205Z,11.5
2023-01-04T23:51:44.793Z,11.6
2023-01-04T23:53:42.389Z,11.5
2023-01-04T23:55:47.903Z,11.5
2023-01-04T23:57:45.499Z,11.6
